sensor_id;sensor_type;location;lat;lon;timestamp;P1;durP1;ratioP1;P2;durP2;ratioP2
40781;SDS011;26493;51.938;7.626;2024-03-06T00:00:21;13.68;;;9.00;;
40781;SDS011;26493;51.938;7.626;2024-03-06T00:02:47;13.65;;;9.00;;
40781;SDS011;26493;51.938;7.626;2024-03-06T00:05:13;13.65;;;9.00;;
40781;SDS011;26493;51.938;7.626;2024-03-06T00:07:39;13.60;;;8.75;;
40781;SDS011;26493;51.938;7.626;2024-03-06T00:10:05;13.60;;;8.57;;
40781;SDS011;26493;51.938;7.626;2024-03-06T00:12:31;13.57;;;8.65;;
40781;SDS011;26493;51.938;7.626;2024-03-06T00:14:57;13.35;;;8.07;;
40781;SDS011;26493;51.938;7.626;2024-03-06T00:17:23;13.38;;;8.05;;
40781;SDS011;26493;51.938;7.626;2024-03-06T00:19:49;13.13;;;7.82;;
40781;SDS011;26493;51.938;7.626;2024-03-06T00:22:16;13.30;;;7.85;;
40781;SDS011;26493;51.938;7.626;2024-03-06T00:24:42;13.57;;;8.70;;
40781;SDS011;26493;51.938;7.626;2024-03-06T00:27:08;13.60;;;8.73;;
40781;SDS011;26493;51.938;7.626;2024-03-06T00:29:35;13.57;;;8.80;;
40781;SDS011;26493;51.938;7.626;2024-03-06T00:32:03;13.48;;;8.52;;
40781;SDS011;26493;51.938;7.626;2024-03-06T00:34:29;13.27;;;7.88;;
40781;SDS011;26493;51.938;7.626;2024-03-06T00:36:55;13.27;;;7.93;;
40781;SDS011;26493;51.938;7.626;2024-03-06T00:39:21;13.18;;;7.80;;
40781;SDS011;26493;51.938;7.626;2024-03-06T00:41:47;12.93;;;7.68;;
40781;SDS011;26493;51.938;7.626;2024-03-06T00:44:13;13.18;;;8.07;;
40781;SDS011;26493;51.938;7.626;2024-03-06T00:46:39;13.40;;;8.13;;
40781;SDS011;26493;51.938;7.626;2024-03-06T00:49:05;16.08;;;12.93;;
40781;SDS011;26493;51.938;7.626;2024-03-06T00:51:31;13.52;;;8.77;;
40781;SDS011;26493;51.938;7.626;2024-03-06T00:54:01;13.25;;;7.90;;
40781;SDS011;26493;51.938;7.626;2024-03-06T00:56:27;13.43;;;8.20;;
40781;SDS011;26493;51.938;7.626;2024-03-06T00:58:53;13.45;;;8.30;;
40781;SDS011;26493;51.938;7.626;2024-03-06T01:01:19;13.43;;;8.20;;
40781;SDS011;26493;51.938;7.626;2024-03-06T01:03:45;14.32;;;11.13;;
40781;SDS011;26493;51.938;7.626;2024-03-06T01:06:11;13.48;;;8.35;;
40781;SDS011;26493;51.938;7.626;2024-03-06T01:08:37;13.48;;;8.48;;
40781;SDS011;26493;51.938;7.626;2024-03-06T01:11:03;16.00;;;11.25;;
40781;SDS011;26493;51.938;7.626;2024-03-06T01:13:29;13.25;;;8.15;;
40781;SDS011;26493;51.938;7.626;2024-03-06T01:15:55;13.48;;;8.38;;
40781;SDS011;26493;51.938;7.626;2024-03-06T01:18:21;13.27;;;8.10;;
40781;SDS011;26493;51.938;7.626;2024-03-06T01:20:47;13.30;;;8.20;;
40781;SDS011;26493;51.938;7.626;2024-03-06T01:23:13;13.45;;;8.30;;
40781;SDS011;26493;51.938;7.626;2024-03-06T01:25:39;13.32;;;8.20;;
40781;SDS011;26493;51.938;7.626;2024-03-06T01:28:05;13.55;;;8.40;;
40781;SDS011;26493;51.938;7.626;2024-03-06T01:30:31;13.48;;;8.38;;
40781;SDS011;26493;51.938;7.626;2024-03-06T01:32:57;13.50;;;8.50;;
40781;SDS011;26493;51.938;7.626;2024-03-06T01:35:23;13.52;;;8.48;;
40781;SDS011;26493;51.938;7.626;2024-03-06T01:37:49;13.48;;;8.35;;
40781;SDS011;26493;51.938;7.626;2024-03-06T01:40:15;13.48;;;8.38;;
40781;SDS011;26493;51.938;7.626;2024-03-06T01:42:42;13.55;;;8.50;;
40781;SDS011;26493;51.938;7.626;2024-03-06T01:45:08;16.45;;;12.00;;
40781;SDS011;26493;51.938;7.626;2024-03-06T01:47:34;13.77;;;9.45;;
40781;SDS011;26493;51.938;7.626;2024-03-06T01:50:00;13.50;;;8.48;;
40781;SDS011;26493;51.938;7.626;2024-03-06T01:52:27;13.57;;;8.70;;
40781;SDS011;26493;51.938;7.626;2024-03-06T01:54:53;13.38;;;8.40;;
40781;SDS011;26493;51.938;7.626;2024-03-06T01:57:19;13.35;;;8.48;;
40781;SDS011;26493;51.938;7.626;2024-03-06T01:59:46;13.57;;;8.65;;
40781;SDS011;26493;51.938;7.626;2024-03-06T02:02:12;13.60;;;8.68;;
40781;SDS011;26493;51.938;7.626;2024-03-06T02:04:38;13.60;;;8.70;;
40781;SDS011;26493;51.938;7.626;2024-03-06T02:07:07;15.38;;;12.98;;
40781;SDS011;26493;51.938;7.626;2024-03-06T02:09:33;13.57;;;8.70;;
40781;SDS011;26493;51.938;7.626;2024-03-06T02:11:59;13.57;;;8.70;;
40781;SDS011;26493;51.938;7.626;2024-03-06T02:14:25;24.73;;;17.02;;
40781;SDS011;26493;51.938;7.626;2024-03-06T02:16:52;13.65;;;8.90;;
40781;SDS011;26493;51.938;7.626;2024-03-06T02:19:18;13.65;;;8.93;;
40781;SDS011;26493;51.938;7.626;2024-03-06T02:21:44;13.52;;;8.50;;
40781;SDS011;26493;51.938;7.626;2024-03-06T02:24:10;13.60;;;8.70;;
40781;SDS011;26493;51.938;7.626;2024-03-06T02:26:38;13.55;;;8.73;;
40781;SDS011;26493;51.938;7.626;2024-03-06T02:29:04;13.52;;;8.50;;
40781;SDS011;26493;51.938;7.626;2024-03-06T02:31:31;13.50;;;8.35;;
40781;SDS011;26493;51.938;7.626;2024-03-06T02:33:58;13.65;;;9.10;;
40781;SDS011;26493;51.938;7.626;2024-03-06T02:36:24;13.50;;;8.45;;
40781;SDS011;26493;51.938;7.626;2024-03-06T02:38:50;13.70;;;8.90;;
40781;SDS011;26493;51.938;7.626;2024-03-06T02:41:16;13.45;;;8.45;;
40781;SDS011;26493;51.938;7.626;2024-03-06T02:43:42;13.55;;;8.70;;
40781;SDS011;26493;51.938;7.626;2024-03-06T02:46:08;13.60;;;8.68;;
40781;SDS011;26493;51.938;7.626;2024-03-06T02:48:35;13.52;;;8.45;;
40781;SDS011;26493;51.938;7.626;2024-03-06T02:51:01;13.45;;;8.27;;
40781;SDS011;26493;51.938;7.626;2024-03-06T02:53:27;13.45;;;8.35;;
40781;SDS011;26493;51.938;7.626;2024-03-06T02:55:53;13.43;;;8.20;;
40781;SDS011;26493;51.938;7.626;2024-03-06T02:58:19;13.43;;;8.43;;
40781;SDS011;26493;51.938;7.626;2024-03-06T03:00:45;13.57;;;8.80;;
40781;SDS011;26493;51.938;7.626;2024-03-06T03:03:11;13.27;;;8.27;;
40781;SDS011;26493;51.938;7.626;2024-03-06T03:05:37;13.45;;;8.30;;
40781;SDS011;26493;51.938;7.626;2024-03-06T03:08:04;13.48;;;8.30;;
40781;SDS011;26493;51.938;7.626;2024-03-06T03:10:30;13.25;;;8.10;;
40781;SDS011;26493;51.938;7.626;2024-03-06T03:12:56;13.27;;;7.97;;
40781;SDS011;26493;51.938;7.626;2024-03-06T03:15:22;13.23;;;8.02;;
40781;SDS011;26493;51.938;7.626;2024-03-06T03:17:48;13.40;;;8.10;;
40781;SDS011;26493;51.938;7.626;2024-03-06T03:20:14;13.32;;;7.85;;
40781;SDS011;26493;51.938;7.626;2024-03-06T03:22:42;13.32;;;7.97;;
40781;SDS011;26493;51.938;7.626;2024-03-06T03:25:09;13.20;;;7.80;;
40781;SDS011;26493;51.938;7.626;2024-03-06T03:27:36;12.82;;;7.57;;
40781;SDS011;26493;51.938;7.626;2024-03-06T03:30:02;12.88;;;7.50;;
40781;SDS011;26493;51.938;7.626;2024-03-06T03:32:28;12.52;;;7.35;;
40781;SDS011;26493;51.938;7.626;2024-03-06T03:34:54;16.02;;;9.00;;
40781;SDS011;26493;51.938;7.626;2024-03-06T03:37:20;12.00;;;7.05;;
40781;SDS011;26493;51.938;7.626;2024-03-06T03:39:46;12.00;;;7.05;;
40781;SDS011;26493;51.938;7.626;2024-03-06T03:42:12;11.55;;;6.90;;
40781;SDS011;26493;51.938;7.626;2024-03-06T03:44:38;11.40;;;6.70;;
40781;SDS011;26493;51.938;7.626;2024-03-06T03:47:05;11.20;;;6.60;;
40781;SDS011;26493;51.938;7.626;2024-03-06T03:49:31;11.50;;;7.53;;
40781;SDS011;26493;51.938;7.626;2024-03-06T03:51:57;11.30;;;7.50;;
40781;SDS011;26493;51.938;7.626;2024-03-06T03:54:23;13.25;;;9.45;;
40781;SDS011;26493;51.938;7.626;2024-03-06T03:56:49;10.48;;;6.20;;
40781;SDS011;26493;51.938;7.626;2024-03-06T03:59:15;10.25;;;6.05;;
40781;SDS011;26493;51.938;7.626;2024-03-06T04:01:42;10.30;;;6.10;;
40781;SDS011;26493;51.938;7.626;2024-03-06T04:04:11;10.05;;;6.00;;
40781;SDS011;26493;51.938;7.626;2024-03-06T04:06:37;10.43;;;6.13;;
40781;SDS011;26493;51.938;7.626;2024-03-06T04:09:03;9.93;;;5.90;;
40781;SDS011;26493;51.938;7.626;2024-03-06T04:11:30;10.30;;;6.50;;
40781;SDS011;26493;51.938;7.626;2024-03-06T04:13:58;10.43;;;6.10;;
40781;SDS011;26493;51.938;7.626;2024-03-06T04:16:24;10.05;;;5.90;;
40781;SDS011;26493;51.938;7.626;2024-03-06T04:18:51;10.80;;;6.97;;
40781;SDS011;26493;51.938;7.626;2024-03-06T04:21:17;10.07;;;5.97;;
40781;SDS011;26493;51.938;7.626;2024-03-06T04:23:43;9.95;;;5.85;;
40781;SDS011;26493;51.938;7.626;2024-03-06T04:26:09;10.10;;;6.00;;
40781;SDS011;26493;51.938;7.626;2024-03-06T04:28:35;9.93;;;5.90;;
40781;SDS011;26493;51.938;7.626;2024-03-06T04:31:01;10.13;;;6.00;;
40781;SDS011;26493;51.938;7.626;2024-03-06T04:33:27;10.43;;;6.90;;
40781;SDS011;26493;51.938;7.626;2024-03-06T04:35:53;10.40;;;6.10;;
40781;SDS011;26493;51.938;7.626;2024-03-06T04:38:19;10.20;;;6.00;;
40781;SDS011;26493;51.938;7.626;2024-03-06T04:40:45;10.10;;;6.00;;
40781;SDS011;26493;51.938;7.626;2024-03-06T04:43:11;10.13;;;5.97;;
40781;SDS011;26493;51.938;7.626;2024-03-06T04:45:37;10.10;;;6.00;;
40781;SDS011;26493;51.938;7.626;2024-03-06T04:48:03;12.20;;;7.88;;
40781;SDS011;26493;51.938;7.626;2024-03-06T04:50:30;9.73;;;5.80;;
40781;SDS011;26493;51.938;7.626;2024-03-06T04:52:56;9.25;;;5.50;;
40781;SDS011;26493;51.938;7.626;2024-03-06T04:55:22;9.48;;;5.57;;
40781;SDS011;26493;51.938;7.626;2024-03-06T04:57:50;9.55;;;5.68;;
40781;SDS011;26493;51.938;7.626;2024-03-06T05:00:16;9.70;;;5.70;;
40781;SDS011;26493;51.938;7.626;2024-03-06T05:02:43;9.80;;;5.80;;
40781;SDS011;26493;51.938;7.626;2024-03-06T05:05:09;9.70;;;5.80;;
40781;SDS011;26493;51.938;7.626;2024-03-06T05:07:35;10.00;;;5.90;;
40781;SDS011;26493;51.938;7.626;2024-03-06T05:10:01;9.93;;;5.80;;
40781;SDS011;26493;51.938;7.626;2024-03-06T05:12:28;9.80;;;5.80;;
40781;SDS011;26493;51.938;7.626;2024-03-06T05:14:54;11.43;;;6.82;;
40781;SDS011;26493;51.938;7.626;2024-03-06T05:17:20;9.93;;;5.85;;
40781;SDS011;26493;51.938;7.626;2024-03-06T05:19:46;9.70;;;5.78;;
40781;SDS011;26493;51.938;7.626;2024-03-06T05:22:14;10.57;;;6.25;;
40781;SDS011;26493;51.938;7.626;2024-03-06T05:24:40;10.75;;;6.35;;
40781;SDS011;26493;51.938;7.626;2024-03-06T05:27:06;10.70;;;6.30;;
40781;SDS011;26493;51.938;7.626;2024-03-06T05:29:33;10.55;;;6.18;;
40781;SDS011;26493;51.938;7.626;2024-03-06T05:31:59;10.60;;;6.20;;
40781;SDS011;26493;51.938;7.626;2024-03-06T05:34:25;10.77;;;6.30;;
40781;SDS011;26493;51.938;7.626;2024-03-06T05:36:51;10.50;;;6.20;;
40781;SDS011;26493;51.938;7.626;2024-03-06T05:39:17;10.50;;;6.20;;
40781;SDS011;26493;51.938;7.626;2024-03-06T05:41:43;10.80;;;6.30;;
40781;SDS011;26493;51.938;7.626;2024-03-06T05:44:09;10.93;;;6.40;;
40781;SDS011;26493;51.938;7.626;2024-03-06T05:46:35;11.50;;;7.53;;
40781;SDS011;26493;51.938;7.626;2024-03-06T05:49:02;10.90;;;6.45;;
40781;SDS011;26493;51.938;7.626;2024-03-06T05:51:29;11.40;;;6.70;;
40781;SDS011;26493;51.938;7.626;2024-03-06T05:53:55;11.55;;;6.75;;
40781;SDS011;26493;51.938;7.626;2024-03-06T05:56:21;11.40;;;7.13;;
40781;SDS011;26493;51.938;7.626;2024-03-06T05:58:47;14.15;;;8.98;;
40781;SDS011;26493;51.938;7.626;2024-03-06T06:01:17;11.05;;;6.53;;
40781;SDS011;26493;51.938;7.626;2024-03-06T06:03:49;11.02;;;6.50;;
40781;SDS011;26493;51.938;7.626;2024-03-06T06:06:16;11.75;;;7.43;;
40781;SDS011;26493;51.938;7.626;2024-03-06T06:08:44;11.00;;;6.43;;
40781;SDS011;26493;51.938;7.626;2024-03-06T06:11:10;10.80;;;6.40;;
40781;SDS011;26493;51.938;7.626;2024-03-06T06:13:36;12.77;;;8.85;;
40781;SDS011;26493;51.938;7.626;2024-03-06T06:16:02;10.80;;;6.30;;
40781;SDS011;26493;51.938;7.626;2024-03-06T06:18:28;10.70;;;6.20;;
40781;SDS011;26493;51.938;7.626;2024-03-06T06:20:56;10.77;;;6.38;;
40781;SDS011;26493;51.938;7.626;2024-03-06T06:23:22;10.38;;;6.10;;
40781;SDS011;26493;51.938;7.626;2024-03-06T06:25:48;10.55;;;6.20;;
40781;SDS011;26493;51.938;7.626;2024-03-06T06:28:14;10.48;;;6.18;;
40781;SDS011;26493;51.938;7.626;2024-03-06T06:30:40;10.55;;;6.18;;
40781;SDS011;26493;51.938;7.626;2024-03-06T06:33:06;10.38;;;6.10;;
40781;SDS011;26493;51.938;7.626;2024-03-06T06:35:33;11.00;;;6.43;;
40781;SDS011;26493;51.938;7.626;2024-03-06T06:38:02;10.32;;;6.10;;
40781;SDS011;26493;51.938;7.626;2024-03-06T06:40:29;10.82;;;6.40;;
40781;SDS011;26493;51.938;7.626;2024-03-06T06:42:56;11.50;;;8.25;;
40781;SDS011;26493;51.938;7.626;2024-03-06T06:45:22;10.30;;;6.05;;
40781;SDS011;26493;51.938;7.626;2024-03-06T06:47:49;11.00;;;6.40;;
40781;SDS011;26493;51.938;7.626;2024-03-06T06:50:15;10.73;;;6.38;;
40781;SDS011;26493;51.938;7.626;2024-03-06T06:52:42;10.65;;;6.30;;
40781;SDS011;26493;51.938;7.626;2024-03-06T06:55:08;10.88;;;6.40;;
40781;SDS011;26493;51.938;7.626;2024-03-06T06:57:36;10.95;;;6.45;;
40781;SDS011;26493;51.938;7.626;2024-03-06T07:00:02;11.23;;;6.60;;
40781;SDS011;26493;51.938;7.626;2024-03-06T07:02:41;11.27;;;6.60;;
40781;SDS011;26493;51.938;7.626;2024-03-06T07:05:08;11.43;;;6.68;;
40781;SDS011;26493;51.938;7.626;2024-03-06T07:07:34;10.82;;;6.40;;
40781;SDS011;26493;51.938;7.626;2024-03-06T07:10:01;11.52;;;7.28;;
40781;SDS011;26493;51.938;7.626;2024-03-06T07:12:27;11.20;;;6.60;;
40781;SDS011;26493;51.938;7.626;2024-03-06T07:14:53;12.20;;;7.10;;
40781;SDS011;26493;51.938;7.626;2024-03-06T07:17:20;12.25;;;7.15;;
40781;SDS011;26493;51.938;7.626;2024-03-06T07:19:45;12.07;;;7.00;;
40781;SDS011;26493;51.938;7.626;2024-03-06T07:22:11;11.80;;;6.82;;
40781;SDS011;26493;51.938;7.626;2024-03-06T07:24:37;12.18;;;7.10;;
40781;SDS011;26493;51.938;7.626;2024-03-06T07:27:04;12.02;;;7.05;;
40781;SDS011;26493;51.938;7.626;2024-03-06T07:29:30;12.50;;;7.30;;
40781;SDS011;26493;51.938;7.626;2024-03-06T07:31:56;12.65;;;7.40;;
40781;SDS011;26493;51.938;7.626;2024-03-06T07:34:22;12.60;;;7.70;;
40781;SDS011;26493;51.938;7.626;2024-03-06T07:36:48;12.43;;;7.30;;
40781;SDS011;26493;51.938;7.626;2024-03-06T07:39:18;12.63;;;7.38;;
40781;SDS011;26493;51.938;7.626;2024-03-06T07:41:44;13.25;;;8.65;;
40781;SDS011;26493;51.938;7.626;2024-03-06T07:44:10;12.95;;;7.57;;
40781;SDS011;26493;51.938;7.626;2024-03-06T07:46:36;12.25;;;7.15;;
40781;SDS011;26493;51.938;7.626;2024-03-06T07:49:02;12.55;;;8.10;;
40781;SDS011;26493;51.938;7.626;2024-03-06T07:51:29;12.10;;;7.05;;
40781;SDS011;26493;51.938;7.626;2024-03-06T07:53:56;11.73;;;6.88;;
40781;SDS011;26493;51.938;7.626;2024-03-06T07:56:22;12.20;;;7.10;;
40781;SDS011;26493;51.938;7.626;2024-03-06T07:58:48;12.20;;;7.10;;
40781;SDS011;26493;51.938;7.626;2024-03-06T08:01:14;13.02;;;7.55;;
40781;SDS011;26493;51.938;7.626;2024-03-06T08:03:40;13.23;;;7.80;;
40781;SDS011;26493;51.938;7.626;2024-03-06T08:06:08;12.63;;;7.38;;
40781;SDS011;26493;51.938;7.626;2024-03-06T08:08:34;13.23;;;7.70;;
40781;SDS011;26493;51.938;7.626;2024-03-06T08:11:00;13.00;;;7.60;;
40781;SDS011;26493;51.938;7.626;2024-03-06T08:13:26;12.70;;;7.40;;
40781;SDS011;26493;51.938;7.626;2024-03-06T08:15:52;13.18;;;7.70;;
40781;SDS011;26493;51.938;7.626;2024-03-06T08:18:18;13.30;;;7.85;;
40781;SDS011;26493;51.938;7.626;2024-03-06T08:20:44;13.30;;;7.80;;
40781;SDS011;26493;51.938;7.626;2024-03-06T08:23:10;13.20;;;7.80;;
40781;SDS011;26493;51.938;7.626;2024-03-06T08:25:36;13.15;;;7.82;;
40781;SDS011;26493;51.938;7.626;2024-03-06T08:28:02;13.50;;;8.30;;
40781;SDS011;26493;51.938;7.626;2024-03-06T08:30:28;13.38;;;8.02;;
40781;SDS011;26493;51.938;7.626;2024-03-06T08:32:58;13.27;;;8.02;;
40781;SDS011;26493;51.938;7.626;2024-03-06T08:35:24;14.23;;;8.75;;
40781;SDS011;26493;51.938;7.626;2024-03-06T08:37:50;13.48;;;8.20;;
40781;SDS011;26493;51.938;7.626;2024-03-06T08:40:16;13.38;;;8.13;;
40781;SDS011;26493;51.938;7.626;2024-03-06T08:42:46;13.38;;;7.95;;
40781;SDS011;26493;51.938;7.626;2024-03-06T08:45:13;13.10;;;7.63;;
40781;SDS011;26493;51.938;7.626;2024-03-06T08:47:39;13.20;;;7.78;;
40781;SDS011;26493;51.938;7.626;2024-03-06T08:50:06;13.30;;;7.90;;
40781;SDS011;26493;51.938;7.626;2024-03-06T08:52:34;13.07;;;7.75;;
40781;SDS011;26493;51.938;7.626;2024-03-06T08:55:01;13.20;;;7.70;;
40781;SDS011;26493;51.938;7.626;2024-03-06T08:57:29;13.10;;;7.65;;
40781;SDS011;26493;51.938;7.626;2024-03-06T08:59:56;13.05;;;7.60;;
40781;SDS011;26493;51.938;7.626;2024-03-06T09:02:22;13.38;;;7.90;;
40781;SDS011;26493;51.938;7.626;2024-03-06T09:04:48;12.93;;;7.53;;
40781;SDS011;26493;51.938;7.626;2024-03-06T09:07:16;13.20;;;7.72;;
40781;SDS011;26493;51.938;7.626;2024-03-06T09:09:42;13.35;;;8.00;;
40781;SDS011;26493;51.938;7.626;2024-03-06T09:12:09;13.50;;;8.27;;
40781;SDS011;26493;51.938;7.626;2024-03-06T09:14:36;13.48;;;8.23;;
40781;SDS011;26493;51.938;7.626;2024-03-06T09:17:02;13.50;;;8.40;;
40781;SDS011;26493;51.938;7.626;2024-03-06T09:19:28;13.90;;;9.18;;
40781;SDS011;26493;51.938;7.626;2024-03-06T09:21:54;13.52;;;8.50;;
40781;SDS011;26493;51.938;7.626;2024-03-06T09:24:21;13.43;;;8.32;;
40781;SDS011;26493;51.938;7.626;2024-03-06T09:26:48;13.43;;;8.00;;
40781;SDS011;26493;51.938;7.626;2024-03-06T09:29:14;13.43;;;8.07;;
40781;SDS011;26493;51.938;7.626;2024-03-06T09:31:40;14.18;;;8.80;;
40781;SDS011;26493;51.938;7.626;2024-03-06T09:34:06;15.35;;;10.45;;
40781;SDS011;26493;51.938;7.626;2024-03-06T09:36:32;13.45;;;8.27;;
40781;SDS011;26493;51.938;7.626;2024-03-06T09:38:58;13.35;;;7.97;;
40781;SDS011;26493;51.938;7.626;2024-03-06T09:41:24;13.52;;;8.50;;
40781;SDS011;26493;51.938;7.626;2024-03-06T09:43:51;13.45;;;8.25;;
40781;SDS011;26493;51.938;7.626;2024-03-06T09:46:18;13.27;;;7.93;;
40781;SDS011;26493;51.938;7.626;2024-03-06T09:48:47;13.48;;;8.15;;
40781;SDS011;26493;51.938;7.626;2024-03-06T09:51:14;13.50;;;8.32;;
40781;SDS011;26493;51.938;7.626;2024-03-06T09:53:41;13.25;;;7.90;;
40781;SDS011;26493;51.938;7.626;2024-03-06T09:56:09;20.88;;;14.02;;
40781;SDS011;26493;51.938;7.626;2024-03-06T09:58:36;13.38;;;8.15;;
40781;SDS011;26493;51.938;7.626;2024-03-06T10:01:02;13.60;;;8.57;;
40781;SDS011;26493;51.938;7.626;2024-03-06T10:03:29;13.48;;;8.30;;
40781;SDS011;26493;51.938;7.626;2024-03-06T10:05:55;13.60;;;8.70;;
40781;SDS011;26493;51.938;7.626;2024-03-06T10:08:21;13.55;;;8.50;;
40781;SDS011;26493;51.938;7.626;2024-03-06T10:10:49;14.00;;;8.90;;
40781;SDS011;26493;51.938;7.626;2024-03-06T10:13:18;13.30;;;7.93;;
40781;SDS011;26493;51.938;7.626;2024-03-06T10:18:22;20.33;;;12.15;;
40781;SDS011;26493;51.938;7.626;2024-03-06T10:20:51;13.45;;;8.23;;
40781;SDS011;26493;51.938;7.626;2024-03-06T10:23:18;13.45;;;8.23;;
40781;SDS011;26493;51.938;7.626;2024-03-06T10:25:45;13.60;;;8.60;;
40781;SDS011;26493;51.938;7.626;2024-03-06T10:28:12;13.02;;;8.23;;
40781;SDS011;26493;51.938;7.626;2024-03-06T10:30:39;12.27;;;7.10;;
40781;SDS011;26493;51.938;7.626;2024-03-06T10:33:09;17.10;;;9.48;;
40781;SDS011;26493;51.938;7.626;2024-03-06T10:35:35;15.65;;;8.95;;
40781;SDS011;26493;51.938;7.626;2024-03-06T10:38:06;14.10;;;9.50;;
40781;SDS011;26493;51.938;7.626;2024-03-06T10:40:33;12.95;;;7.50;;
40781;SDS011;26493;51.938;7.626;2024-03-06T10:43:00;14.20;;;8.02;;
40781;SDS011;26493;51.938;7.626;2024-03-06T10:45:31;12.82;;;7.45;;
40781;SDS011;26493;51.938;7.626;2024-03-06T10:47:59;13.15;;;7.70;;
40781;SDS011;26493;51.938;7.626;2024-03-06T10:50:25;13.25;;;7.90;;
40781;SDS011;26493;51.938;7.626;2024-03-06T10:52:53;13.40;;;8.10;;
40781;SDS011;26493;51.938;7.626;2024-03-06T10:55:22;13.68;;;8.73;;
40781;SDS011;26493;51.938;7.626;2024-03-06T10:57:48;13.23;;;8.00;;
40781;SDS011;26493;51.938;7.626;2024-03-06T11:00:15;13.15;;;7.70;;
40781;SDS011;26493;51.938;7.626;2024-03-06T11:02:45;13.23;;;7.72;;
40781;SDS011;26493;51.938;7.626;2024-03-06T11:05:15;13.00;;;7.60;;
40781;SDS011;26493;51.938;7.626;2024-03-06T11:07:41;13.27;;;7.80;;
40781;SDS011;26493;51.938;7.626;2024-03-06T11:10:08;15.38;;;8.90;;
40781;SDS011;26493;51.938;7.626;2024-03-06T11:12:41;13.20;;;7.80;;
40781;SDS011;26493;51.938;7.626;2024-03-06T11:15:10;13.02;;;7.75;;
40781;SDS011;26493;51.938;7.626;2024-03-06T11:17:39;13.50;;;8.93;;
40781;SDS011;26493;51.938;7.626;2024-03-06T11:28:05;12.95;;;7.55;;
40781;SDS011;26493;51.938;7.626;2024-03-06T11:30:31;12.93;;;7.60;;
40781;SDS011;26493;51.938;7.626;2024-03-06T11:33:00;12.75;;;7.40;;
40781;SDS011;26493;51.938;7.626;2024-03-06T11:35:30;13.05;;;7.80;;
40781;SDS011;26493;51.938;7.626;2024-03-06T11:37:56;19.45;;;9.35;;
40781;SDS011;26493;51.938;7.626;2024-03-06T11:40:25;13.23;;;7.75;;
40781;SDS011;26493;51.938;7.626;2024-03-06T11:42:51;13.07;;;7.75;;
40781;SDS011;26493;51.938;7.626;2024-03-06T11:45:17;12.95;;;7.57;;
40781;SDS011;26493;51.938;7.626;2024-03-06T11:48:00;13.38;;;8.02;;
40781;SDS011;26493;51.938;7.626;2024-03-06T11:50:26;12.25;;;7.10;;
40781;SDS011;26493;51.938;7.626;2024-03-06T11:52:53;13.60;;;8.75;;
40781;SDS011;26493;51.938;7.626;2024-03-06T11:55:22;12.30;;;7.18;;
40781;SDS011;26493;51.938;7.626;2024-03-06T11:57:52;13.18;;;8.20;;
40781;SDS011;26493;51.938;7.626;2024-03-06T12:00:21;12.90;;;7.50;;
40781;SDS011;26493;51.938;7.626;2024-03-06T12:02:48;12.80;;;7.45;;
40781;SDS011;26493;51.938;7.626;2024-03-06T12:05:14;13.10;;;7.63;;
40781;SDS011;26493;51.938;7.626;2024-03-06T12:07:47;13.27;;;7.95;;
40781;SDS011;26493;51.938;7.626;2024-03-06T12:10:13;13.27;;;8.05;;
40781;SDS011;26493;51.938;7.626;2024-03-06T12:12:40;13.38;;;8.27;;
40781;SDS011;26493;51.938;7.626;2024-03-06T12:15:09;13.75;;;9.10;;
40781;SDS011;26493;51.938;7.626;2024-03-06T12:17:45;13.90;;;9.50;;
40781;SDS011;26493;51.938;7.626;2024-03-06T12:20:12;13.88;;;9.40;;
40781;SDS011;26493;51.938;7.626;2024-03-06T12:22:59;13.88;;;9.48;;
40781;SDS011;26493;51.938;7.626;2024-03-06T12:25:25;13.80;;;9.60;;
40781;SDS011;26493;51.938;7.626;2024-03-06T12:27:52;13.90;;;9.57;;
40781;SDS011;26493;51.938;7.626;2024-03-06T12:30:20;13.80;;;9.20;;
40781;SDS011;26493;51.938;7.626;2024-03-06T12:32:57;14.07;;;9.70;;
40781;SDS011;26493;51.938;7.626;2024-03-06T12:35:26;13.85;;;9.50;;
40781;SDS011;26493;51.938;7.626;2024-03-06T12:37:52;13.90;;;9.65;;
40781;SDS011;26493;51.938;7.626;2024-03-06T12:40:21;13.90;;;9.60;;
40781;SDS011;26493;51.938;7.626;2024-03-06T12:42:47;13.77;;;9.10;;
40781;SDS011;26493;51.938;7.626;2024-03-06T12:45:15;13.82;;;9.43;;
40781;SDS011;26493;51.938;7.626;2024-03-06T12:47:45;13.90;;;9.50;;
40781;SDS011;26493;51.938;7.626;2024-03-06T12:50:12;13.85;;;9.43;;
40781;SDS011;26493;51.938;7.626;2024-03-06T12:52:39;13.95;;;9.60;;
40781;SDS011;26493;51.938;7.626;2024-03-06T12:55:05;13.90;;;9.77;;
40781;SDS011;26493;51.938;7.626;2024-03-06T12:57:32;13.98;;;9.95;;
40781;SDS011;26493;51.938;7.626;2024-03-06T12:59:58;14.05;;;10.05;;
40781;SDS011;26493;51.938;7.626;2024-03-06T13:02:24;14.00;;;9.90;;
40781;SDS011;26493;51.938;7.626;2024-03-06T13:04:50;14.00;;;9.55;;
40781;SDS011;26493;51.938;7.626;2024-03-06T13:07:17;16.40;;;14.63;;
40781;SDS011;26493;51.938;7.626;2024-03-06T13:09:43;13.95;;;9.70;;
40781;SDS011;26493;51.938;7.626;2024-03-06T13:12:09;20.50;;;18.33;;
40781;SDS011;26493;51.938;7.626;2024-03-06T13:14:35;13.93;;;9.70;;
40781;SDS011;26493;51.938;7.626;2024-03-06T13:17:01;13.95;;;9.60;;
40781;SDS011;26493;51.938;7.626;2024-03-06T13:19:27;13.98;;;9.70;;
40781;SDS011;26493;51.938;7.626;2024-03-06T13:21:53;13.85;;;9.38;;
40781;SDS011;26493;51.938;7.626;2024-03-06T13:24:19;14.02;;;9.95;;
40781;SDS011;26493;51.938;7.626;2024-03-06T13:26:46;18.15;;;11.77;;
40781;SDS011;26493;51.938;7.626;2024-03-06T13:29:14;13.80;;;9.20;;
40781;SDS011;26493;51.938;7.626;2024-03-06T13:31:41;13.85;;;9.38;;
40781;SDS011;26493;51.938;7.626;2024-03-06T13:34:07;13.90;;;9.50;;
40781;SDS011;26493;51.938;7.626;2024-03-06T13:36:33;13.88;;;9.45;;
40781;SDS011;26493;51.938;7.626;2024-03-06T13:38:59;13.68;;;9.00;;
40781;SDS011;26493;51.938;7.626;2024-03-06T13:41:25;14.30;;;10.35;;
40781;SDS011;26493;51.938;7.626;2024-03-06T13:43:51;14.20;;;10.55;;
40781;SDS011;26493;51.938;7.626;2024-03-06T13:46:17;13.77;;;9.20;;
40781;SDS011;26493;51.938;7.626;2024-03-06T13:48:43;13.80;;;9.30;;
40781;SDS011;26493;51.938;7.626;2024-03-06T13:51:09;14.00;;;9.77;;
40781;SDS011;26493;51.938;7.626;2024-03-06T13:53:35;14.05;;;9.95;;
40781;SDS011;26493;51.938;7.626;2024-03-06T13:56:01;14.05;;;10.00;;
40781;SDS011;26493;51.938;7.626;2024-03-06T13:58:27;14.00;;;9.80;;
40781;SDS011;26493;51.938;7.626;2024-03-06T14:00:53;13.85;;;9.50;;
40781;SDS011;26493;51.938;7.626;2024-03-06T14:03:19;14.05;;;10.00;;
40781;SDS011;26493;51.938;7.626;2024-03-06T14:05:47;14.18;;;10.25;;
40781;SDS011;26493;51.938;7.626;2024-03-06T14:08:13;14.20;;;10.30;;
40781;SDS011;26493;51.938;7.626;2024-03-06T14:10:41;14.30;;;10.50;;
40781;SDS011;26493;51.938;7.626;2024-03-06T14:13:07;14.18;;;10.20;;
40781;SDS011;26493;51.938;7.626;2024-03-06T14:15:33;14.05;;;10.00;;
40781;SDS011;26493;51.938;7.626;2024-03-06T14:17:59;13.98;;;9.75;;
40781;SDS011;26493;51.938;7.626;2024-03-06T14:20:27;14.20;;;10.27;;
40781;SDS011;26493;51.938;7.626;2024-03-06T14:22:53;14.50;;;10.98;;
40781;SDS011;26493;51.938;7.626;2024-03-06T14:25:19;15.15;;;11.18;;
40781;SDS011;26493;51.938;7.626;2024-03-06T14:27:46;14.10;;;10.07;;
40781;SDS011;26493;51.938;7.626;2024-03-06T14:30:12;16.90;;;12.95;;
40781;SDS011;26493;51.938;7.626;2024-03-06T14:32:40;14.77;;;11.77;;
40781;SDS011;26493;51.938;7.626;2024-03-06T14:35:06;14.20;;;10.30;;
40781;SDS011;26493;51.938;7.626;2024-03-06T14:37:32;16.45;;;14.40;;
40781;SDS011;26493;51.938;7.626;2024-03-06T14:39:58;14.18;;;10.25;;